sensor_id;sensor_type;location;lat;lon;timestamp;pressure;altitude;pressure_sealevel;temperature;humidity
46642;BME280;32370;41.864;-88.124;2023-04-30T00:01:04;97527.69;;;9.62;57.21
46642;BME280;32370;41.864;-88.124;2023-04-30T00:03:32;97527.48;;;9.49;56.30
46642;BME280;32370;41.864;-88.124;2023-04-30T00:05:59;97532.58;;;9.64;57.30
46642;BME280;32370;41.864;-88.124;2023-04-30T00:08:27;97538.37;;;9.69;57.72
46642;BME280;32370;41.864;-88.124;2023-04-30T00:10:56;97542.78;;;9.53;57.98
46642;BME280;32370;41.864;-88.124;2023-04-30T00:13:23;97545.24;;;9.83;58.89
46642;BME280;32370;41.864;-88.124;2023-04-30T00:15:51;97550.13;;;9.66;59.35
46642;BME280;32370;41.864;-88.124;2023-04-30T00:18:19;97556.38;;;9.48;60.18
46642;BME280;32370;41.864;-88.124;2023-04-30T00:20:47;97555.95;;;9.34;60.05
46642;BME280;32370;41.864;-88.124;2023-04-30T00:23:14;97551.58;;;9.29;62.05
46642;BME280;32370;41.864;-88.124;2023-04-30T00:25:42;97554.33;;;9.42;65.05
46642;BME280;32370;41.864;-88.124;2023-04-30T00:28:10;97554.88;;;8.95;64.34
46642;BME280;32370;41.864;-88.124;2023-04-30T00:30:38;97559.06;;;9.21;67.15
46642;BME280;32370;41.864;-88.124;2023-04-30T00:33:06;97558.99;;;8.62;66.81
46642;BME280;32370;41.864;-88.124;2023-04-30T00:35:34;97562.60;;;8.41;66.82
46642;BME280;32370;41.864;-88.124;2023-04-30T00:38:01;97564.55;;;8.41;67.78
46642;BME280;32370;41.864;-88.124;2023-04-30T00:40:29;97560.72;;;8.46;68.37
46642;BME280;32370;41.864;-88.124;2023-04-30T00:42:57;97559.17;;;8.21;70.00
46642;BME280;32370;41.864;-88.124;2023-04-30T00:45:25;97559.95;;;7.99;69.70
46642;BME280;32370;41.864;-88.124;2023-04-30T00:47:53;97562.58;;;8.34;70.63
46642;BME280;32370;41.864;-88.124;2023-04-30T00:50:22;97566.66;;;8.32;70.71
46642;BME280;32370;41.864;-88.124;2023-04-30T00:52:51;97566.49;;;8.10;71.57
46642;BME280;32370;41.864;-88.124;2023-04-30T00:55:19;97559.74;;;8.03;70.80
46642;BME280;32370;41.864;-88.124;2023-04-30T00:57:47;97559.22;;;8.06;69.79
46642;BME280;32370;41.864;-88.124;2023-04-30T01:00:15;97555.93;;;8.48;69.16
46642;BME280;32370;41.864;-88.124;2023-04-30T01:02:44;97554.11;;;8.41;69.01
46642;BME280;32370;41.864;-88.124;2023-04-30T01:05:12;97549.79;;;8.59;67.47
46642;BME280;32370;41.864;-88.124;2023-04-30T01:07:40;97544.89;;;8.46;68.63
46642;BME280;32370;41.864;-88.124;2023-04-30T01:10:09;97550.95;;;8.26;69.14
46642;BME280;32370;41.864;-88.124;2023-04-30T01:12:48;97555.93;;;8.31;68.95
46642;BME280;32370;41.864;-88.124;2023-04-30T01:15:23;97560.08;;;8.11;68.78
46642;BME280;32370;41.864;-88.124;2023-04-30T01:17:57;97567.75;;;8.03;68.82
46642;BME280;32370;41.864;-88.124;2023-04-30T01:20:29;97568.79;;;8.03;68.99
46642;BME280;32370;41.864;-88.124;2023-04-30T01:23:10;97569.39;;;7.76;68.48
46642;BME280;32370;41.864;-88.124;2023-04-30T01:25:56;97562.90;;;7.86;69.00
46642;BME280;32370;41.864;-88.124;2023-04-30T01:28:27;97560.49;;;8.01;69.08
46642;BME280;32370;41.864;-88.124;2023-04-30T01:30:56;97557.81;;;7.78;69.42
46642;BME280;32370;41.864;-88.124;2023-04-30T01:33:25;97553.68;;;7.74;70.62
46642;BME280;32370;41.864;-88.124;2023-04-30T01:36:06;97548.43;;;7.24;69.16
46642;BME280;32370;41.864;-88.124;2023-04-30T01:38:49;97542.34;;;7.12;69.61
46642;BME280;32370;41.864;-88.124;2023-04-30T01:41:31;97543.42;;;7.52;71.04
46642;BME280;32370;41.864;-88.124;2023-04-30T01:44:11;97550.48;;;7.43;69.62
46642;BME280;32370;41.864;-88.124;2023-04-30T01:46:48;97545.64;;;7.29;70.08
46642;BME280;32370;41.864;-88.124;2023-04-30T01:49:29;97547.63;;;7.05;70.01
46642;BME280;32370;41.864;-88.124;2023-04-30T01:52:05;97551.67;;;7.28;70.59
46642;BME280;32370;41.864;-88.124;2023-04-30T01:54:42;97553.22;;;7.18;70.65
46642;BME280;32370;41.864;-88.124;2023-04-30T01:57:17;97548.06;;;7.30;70.24
46642;BME280;32370;41.864;-88.124;2023-04-30T01:59:45;97549.23;;;7.25;71.36
46642;BME280;32370;41.864;-88.124;2023-04-30T02:02:13;97556.97;;;6.79;71.19
46642;BME280;32370;41.864;-88.124;2023-04-30T02:04:42;97560.61;;;7.03;70.94
46642;BME280;32370;41.864;-88.124;2023-04-30T02:07:09;97554.21;;;6.76;72.12
46642;BME280;32370;41.864;-88.124;2023-04-30T02:09:38;97552.09;;;6.61;71.59
46642;BME280;32370;41.864;-88.124;2023-04-30T02:12:06;97551.11;;;6.75;72.39
46642;BME280;32370;41.864;-88.124;2023-04-30T02:14:35;97552.03;;;6.95;72.82
46642;BME280;32370;41.864;-88.124;2023-04-30T02:17:03;97552.77;;;6.91;72.66
46642;BME280;32370;41.864;-88.124;2023-04-30T02:19:31;97555.56;;;6.46;72.81
46642;BME280;32370;41.864;-88.124;2023-04-30T02:21:59;97562.06;;;6.36;73.62
46642;BME280;32370;41.864;-88.124;2023-04-30T02:24:27;97561.39;;;6.61;73.52
46642;BME280;32370;41.864;-88.124;2023-04-30T02:26:55;97562.58;;;6.37;75.57
46642;BME280;32370;41.864;-88.124;2023-04-30T02:29:23;97564.57;;;6.35;75.37
46642;BME280;32370;41.864;-88.124;2023-04-30T02:31:51;97563.37;;;6.49;75.39
46642;BME280;32370;41.864;-88.124;2023-04-30T02:34:18;97559.66;;;6.65;76.11
46642;BME280;32370;41.864;-88.124;2023-04-30T02:36:46;97559.83;;;6.56;76.56
46642;BME280;32370;41.864;-88.124;2023-04-30T02:39:14;97561.46;;;6.22;76.86
46642;BME280;32370;41.864;-88.124;2023-04-30T02:41:42;97559.55;;;6.11;76.10
46642;BME280;32370;41.864;-88.124;2023-04-30T02:44:11;97567.47;;;6.02;77.08
46642;BME280;32370;41.864;-88.124;2023-04-30T02:46:39;97566.71;;;5.97;76.49
46642;BME280;32370;41.864;-88.124;2023-04-30T02:49:07;97555.55;;;5.95;76.62
46642;BME280;32370;41.864;-88.124;2023-04-30T02:51:35;97545.75;;;6.06;75.55
46642;BME280;32370;41.864;-88.124;2023-04-30T02:54:02;97546.49;;;6.15;76.33
46642;BME280;32370;41.864;-88.124;2023-04-30T02:56:31;97545.86;;;5.77;77.35
46642;BME280;32370;41.864;-88.124;2023-04-30T02:58:58;97540.55;;;6.10;77.15
46642;BME280;32370;41.864;-88.124;2023-04-30T03:01:26;97537.64;;;5.84;77.14
46642;BME280;32370;41.864;-88.124;2023-04-30T03:03:54;97529.77;;;5.73;77.19
46642;BME280;32370;41.864;-88.124;2023-04-30T03:06:22;97533.63;;;5.73;76.87
46642;BME280;32370;41.864;-88.124;2023-04-30T03:08:50;97529.88;;;5.39;76.91
46642;BME280;32370;41.864;-88.124;2023-04-30T03:11:18;97524.68;;;5.61;77.14
46642;BME280;32370;41.864;-88.124;2023-04-30T03:13:47;97520.10;;;5.50;77.17
46642;BME280;32370;41.864;-88.124;2023-04-30T03:16:16;97518.05;;;5.45;77.54
46642;BME280;32370;41.864;-88.124;2023-04-30T03:18:45;97518.70;;;5.33;77.85
46642;BME280;32370;41.864;-88.124;2023-04-30T03:21:14;97519.39;;;5.31;77.49
46642;BME280;32370;41.864;-88.124;2023-04-30T03:23:42;97522.03;;;5.46;77.87
46642;BME280;32370;41.864;-88.124;2023-04-30T03:26:10;97525.75;;;5.52;77.46
46642;BME280;32370;41.864;-88.124;2023-04-30T03:28:38;97525.48;;;5.52;76.06
46642;BME280;32370;41.864;-88.124;2023-04-30T03:31:06;97517.70;;;4.97;76.41
46642;BME280;32370;41.864;-88.124;2023-04-30T03:33:34;97514.48;;;5.14;75.92
46642;BME280;32370;41.864;-88.124;2023-04-30T03:36:02;97507.72;;;5.41;74.95
46642;BME280;32370;41.864;-88.124;2023-04-30T03:38:31;97509.91;;;5.54;74.43
46642;BME280;32370;41.864;-88.124;2023-04-30T03:40:59;97509.30;;;5.53;74.10
46642;BME280;32370;41.864;-88.124;2023-04-30T03:43:27;97499.96;;;4.86;73.45
46642;BME280;32370;41.864;-88.124;2023-04-30T03:45:54;97498.43;;;5.52;73.24
46642;BME280;32370;41.864;-88.124;2023-04-30T03:48:22;97488.39;;;5.16;73.53
46642;BME280;32370;41.864;-88.124;2023-04-30T03:50:50;97489.97;;;5.45;73.22
46642;BME280;32370;41.864;-88.124;2023-04-30T03:53:18;97488.29;;;5.37;73.01
46642;BME280;32370;41.864;-88.124;2023-04-30T03:55:46;97487.45;;;5.53;72.33
46642;BME280;32370;41.864;-88.124;2023-04-30T03:58:15;97482.36;;;5.89;71.91
46642;BME280;32370;41.864;-88.124;2023-04-30T04:00:43;97483.15;;;6.24;70.96
46642;BME280;32370;41.864;-88.124;2023-04-30T04:03:12;97481.29;;;6.15;70.59
46642;BME280;32370;41.864;-88.124;2023-04-30T04:05:39;97481.29;;;5.86;70.34
46642;BME280;32370;41.864;-88.124;2023-04-30T04:08:07;97478.70;;;5.73;70.66
46642;BME280;32370;41.864;-88.124;2023-04-30T04:10:35;97472.17;;;5.63;70.82
46642;BME280;32370;41.864;-88.124;2023-04-30T04:13:03;97469.70;;;5.75;70.43
46642;BME280;32370;41.864;-88.124;2023-04-30T04:15:31;97466.85;;;5.68;70.38
46642;BME280;32370;41.864;-88.124;2023-04-30T04:17:59;97463.04;;;5.83;69.98
46642;BME280;32370;41.864;-88.124;2023-04-30T04:20:27;97453.15;;;5.67;69.89
46642;BME280;32370;41.864;-88.124;2023-04-30T04:22:55;97453.03;;;5.61;69.87
46642;BME280;32370;41.864;-88.124;2023-04-30T04:25:23;97444.68;;;5.07;71.98
46642;BME280;32370;41.864;-88.124;2023-04-30T04:27:51;97437.13;;;4.72;72.28
46642;BME280;32370;41.864;-88.124;2023-04-30T04:30:19;97432.80;;;4.56;72.36
46642;BME280;32370;41.864;-88.124;2023-04-30T04:32:47;97430.47;;;5.02;73.01
46642;BME280;32370;41.864;-88.124;2023-04-30T04:35:16;97425.62;;;4.18;75.61
46642;BME280;32370;41.864;-88.124;2023-04-30T04:37:44;97414.56;;;4.27;76.30
46642;BME280;32370;41.864;-88.124;2023-04-30T04:40:12;97412.20;;;4.52;75.00
46642;BME280;32370;41.864;-88.124;2023-04-30T04:42:40;97412.33;;;4.63;74.77
46642;BME280;32370;41.864;-88.124;2023-04-30T04:45:08;97410.28;;;4.62;74.60
46642;BME280;32370;41.864;-88.124;2023-04-30T04:47:36;97415.52;;;4.73;74.34
46642;BME280;32370;41.864;-88.124;2023-04-30T04:50:05;97414.16;;;4.77;74.35
46642;BME280;32370;41.864;-88.124;2023-04-30T04:52:33;97410.15;;;4.68;74.88
46642;BME280;32370;41.864;-88.124;2023-04-30T04:55:01;97409.48;;;4.71;74.16
46642;BME280;32370;41.864;-88.124;2023-04-30T04:57:29;97407.03;;;4.86;73.79
46642;BME280;32370;41.864;-88.124;2023-04-30T04:59:57;97395.44;;;4.83;73.71
46642;BME280;32370;41.864;-88.124;2023-04-30T05:02:25;97391.08;;;4.64;74.53
46642;BME280;32370;41.864;-88.124;2023-04-30T05:04:53;97391.72;;;4.41;75.59
46642;BME280;32370;41.864;-88.124;2023-04-30T05:07:21;97386.57;;;4.20;76.78
46642;BME280;32370;41.864;-88.124;2023-04-30T05:09:49;97383.81;;;4.45;76.41
46642;BME280;32370;41.864;-88.124;2023-04-30T05:12:16;97379.04;;;4.26;77.36
46642;BME280;32370;41.864;-88.124;2023-04-30T05:14:44;97372.86;;;3.90;77.91
46642;BME280;32370;41.864;-88.124;2023-04-30T05:17:12;97371.25;;;3.96;78.66
46642;BME280;32370;41.864;-88.124;2023-04-30T05:19:41;97370.01;;;3.48;80.74
46642;BME280;32370;41.864;-88.124;2023-04-30T05:22:08;97366.74;;;3.30;83.27
46642;BME280;32370;41.864;-88.124;2023-04-30T05:24:36;97364.37;;;3.14;84.08
46642;BME280;32370;41.864;-88.124;2023-04-30T05:27:04;97355.51;;;3.11;84.40
46642;BME280;32370;41.864;-88.124;2023-04-30T05:29:32;97355.58;;;2.92;85.23
46642;BME280;32370;41.864;-88.124;2023-04-30T05:32:00;97346.45;;;3.04;86.42
46642;BME280;32370;41.864;-88.124;2023-04-30T05:34:29;97343.65;;;3.23;86.74
46642;BME280;32370;41.864;-88.124;2023-04-30T05:36:57;97340.54;;;3.19;86.91
46642;BME280;32370;41.864;-88.124;2023-04-30T05:39:25;97336.34;;;3.24;87.02
46642;BME280;32370;41.864;-88.124;2023-04-30T05:41:53;97335.16;;;2.99;87.42
46642;BME280;32370;41.864;-88.124;2023-04-30T05:44:20;97337.21;;;3.27;87.70
46642;BME280;32370;41.864;-88.124;2023-04-30T05:46:48;97331.10;;;3.16;87.74
46642;BME280;32370;41.864;-88.124;2023-04-30T05:49:16;97332.13;;;3.24;88.04
46642;BME280;32370;41.864;-88.124;2023-04-30T05:51:44;97329.82;;;3.42;87.92
46642;BME280;32370;41.864;-88.124;2023-04-30T05:54:12;97322.35;;;3.62;87.15
46642;BME280;32370;41.864;-88.124;2023-04-30T05:56:40;97326.18;;;3.57;87.56
46642;BME280;32370;41.864;-88.124;2023-04-30T05:59:08;97318.73;;;3.78;86.99
46642;BME280;32370;41.864;-88.124;2023-04-30T06:01:36;97313.64;;;3.84;86.90
46642;BME280;32370;41.864;-88.124;2023-04-30T06:04:04;97313.72;;;3.93;86.30
46642;BME280;32370;41.864;-88.124;2023-04-30T06:06:32;97307.17;;;3.57;86.06
46642;BME280;32370;41.864;-88.124;2023-04-30T06:09:00;97303.36;;;3.75;85.96
46642;BME280;32370;41.864;-88.124;2023-04-30T06:11:29;97303.99;;;4.13;84.82
46642;BME280;32370;41.864;-88.124;2023-04-30T06:13:57;97302.32;;;3.59;85.70
46642;BME280;32370;41.864;-88.124;2023-04-30T06:16:26;97297.96;;;3.52;86.68
46642;BME280;32370;41.864;-88.124;2023-04-30T06:18:53;97297.46;;;3.78;86.58
46642;BME280;32370;41.864;-88.124;2023-04-30T06:21:22;97293.85;;;3.75;87.09
46642;BME280;32370;41.864;-88.124;2023-04-30T06:23:49;97297.21;;;3.97;86.13
46642;BME280;32370;41.864;-88.124;2023-04-30T06:26:19;97297.13;;;4.38;85.31
46642;BME280;32370;41.864;-88.124;2023-04-30T06:28:47;97293.21;;;4.06;85.48
46642;BME280;32370;41.864;-88.124;2023-04-30T06:31:15;97289.77;;;3.96;86.20
46642;BME280;32370;41.864;-88.124;2023-04-30T06:33:44;97290.58;;;4.01;86.12
46642;BME280;32370;41.864;-88.124;2023-04-30T06:36:12;97286.48;;;3.76;86.09
46642;BME280;32370;41.864;-88.124;2023-04-30T06:38:40;97284.61;;;4.23;85.35
46642;BME280;32370;41.864;-88.124;2023-04-30T06:41:07;97278.35;;;3.96;84.73
46642;BME280;32370;41.864;-88.124;2023-04-30T06:43:35;97278.94;;;4.32;84.59
46642;BME280;32370;41.864;-88.124;2023-04-30T06:46:03;97277.41;;;3.53;85.94
46642;BME280;32370;41.864;-88.124;2023-04-30T06:48:31;97279.82;;;3.71;87.40
46642;BME280;32370;41.864;-88.124;2023-04-30T06:50:59;97271.24;;;4.02;86.95
46642;BME280;32370;41.864;-88.124;2023-04-30T06:53:27;97271.74;;;4.09;87.10
46642;BME280;32370;41.864;-88.124;2023-04-30T06:55:55;97267.41;;;4.24;86.41
46642;BME280;32370;41.864;-88.124;2023-04-30T06:58:23;97264.33;;;3.65;87.60
46642;BME280;32370;41.864;-88.124;2023-04-30T07:00:51;97258.66;;;3.60;88.18
46642;BME280;32370;41.864;-88.124;2023-04-30T07:03:19;97258.40;;;3.31;89.67
46642;BME280;32370;41.864;-88.124;2023-04-30T07:05:47;97254.93;;;3.67;88.88
46642;BME280;32370;41.864;-88.124;2023-04-30T07:08:14;97249.26;;;3.87;88.42
46642;BME280;32370;41.864;-88.124;2023-04-30T07:10:42;97243.19;;;3.95;88.52
46642;BME280;32370;41.864;-88.124;2023-04-30T07:13:10;97236.11;;;3.85;89.59
46642;BME280;32370;41.864;-88.124;2023-04-30T07:15:38;97231.26;;;3.26;90.69
46642;BME280;32370;41.864;-88.124;2023-04-30T07:18:06;97227.01;;;3.49;90.54
46642;BME280;32370;41.864;-88.124;2023-04-30T07:20:34;97225.55;;;3.73;89.62
46642;BME280;32370;41.864;-88.124;2023-04-30T07:23:02;97226.32;;;4.00;90.24
46642;BME280;32370;41.864;-88.124;2023-04-30T07:25:30;97226.27;;;3.82;89.80
46642;BME280;32370;41.864;-88.124;2023-04-30T07:27:58;97223.52;;;3.70;88.67
46642;BME280;32370;41.864;-88.124;2023-04-30T07:30:26;97222.87;;;3.84;88.55
46642;BME280;32370;41.864;-88.124;2023-04-30T07:32:54;97219.38;;;4.13;88.38
46642;BME280;32370;41.864;-88.124;2023-04-30T07:35:23;97217.95;;;4.23;87.14
46642;BME280;32370;41.864;-88.124;2023-04-30T07:37:50;97218.11;;;4.10;87.31
46642;BME280;32370;41.864;-88.124;2023-04-30T07:40:18;97217.23;;;4.20;87.36
46642;BME280;32370;41.864;-88.124;2023-04-30T07:42:46;97214.69;;;4.29;86.76
46642;BME280;32370;41.864;-88.124;2023-04-30T07:45:14;97215.99;;;4.44;86.76
46642;BME280;32370;41.864;-88.124;2023-04-30T07:47:42;97212.86;;;4.35;86.79
46642;BME280;32370;41.864;-88.124;2023-04-30T07:50:10;97215.45;;;4.42;86.56
46642;BME280;32370;41.864;-88.124;2023-04-30T07:52:39;97212.61;;;4.45;85.88
46642;BME280;32370;41.864;-88.124;2023-04-30T07:55:07;97211.46;;;4.88;85.64
46642;BME280;32370;41.864;-88.124;2023-04-30T07:57:35;97205.39;;;4.81;85.81
46642;BME280;32370;41.864;-88.124;2023-04-30T08:00:04;97199.65;;;5.16;84.68
46642;BME280;32370;41.864;-88.124;2023-04-30T08:02:33;97198.60;;;4.49;85.48
46642;BME280;32370;41.864;-88.124;2023-04-30T08:05:01;97198.42;;;4.62;85.88
46642;BME280;32370;41.864;-88.124;2023-04-30T08:07:29;97189.54;;;4.31;87.69
46642;BME280;32370;41.864;-88.124;2023-04-30T08:09:57;97186.12;;;3.95;88.86
46642;BME280;32370;41.864;-88.124;2023-04-30T08:12:25;97183.93;;;4.15;88.45
46642;BME280;32370;41.864;-88.124;2023-04-30T08:15:00;97183.28;;;3.85;89.73
46642;BME280;32370;41.864;-88.124;2023-04-30T08:17:27;97184.68;;;3.59;90.73
46642;BME280;32370;41.864;-88.124;2023-04-30T08:19:55;97190.16;;;3.23;92.36
46642;BME280;32370;41.864;-88.124;2023-04-30T08:22:24;97187.53;;;3.53;91.51
46642;BME280;32370;41.864;-88.124;2023-04-30T08:24:52;97188.44;;;3.79;90.31
46642;BME280;32370;41.864;-88.124;2023-04-30T08:27:20;97194.58;;;4.08;88.70
46642;BME280;32370;41.864;-88.124;2023-04-30T08:29:48;97194.89;;;4.33;88.44
46642;BME280;32370;41.864;-88.124;2023-04-30T08:32:18;97195.23;;;4.03;87.83
46642;BME280;32370;41.864;-88.124;2023-04-30T08:34:46;97195.70;;;3.57;89.77
46642;BME280;32370;41.864;-88.124;2023-04-30T08:37:14;97191.88;;;3.61;89.95
46642;BME280;32370;41.864;-88.124;2023-04-30T08:39:42;97188.31;;;3.75;89.74
46642;BME280;32370;41.864;-88.124;2023-04-30T08:42:13;97186.39;;;3.86;89.53
46642;BME280;32370;41.864;-88.124;2023-04-30T08:44:41;97185.52;;;3.26;91.03
46642;BME280;32370;41.864;-88.124;2023-04-30T08:47:10;97182.36;;;3.73;89.79
46642;BME280;32370;41.864;-88.124;2023-04-30T08:49:40;97176.27;;;3.82;89.00
46642;BME280;32370;41.864;-88.124;2023-04-30T08:52:08;97171.18;;;3.49;90.12
46642;BME280;32370;41.864;-88.124;2023-04-30T08:54:37;97171.91;;;3.43;90.66
46642;BME280;32370;41.864;-88.124;2023-04-30T08:57:05;97170.77;;;3.88;89.28
46642;BME280;32370;41.864;-88.124;2023-04-30T08:59:33;97169.42;;;3.88;88.75
46642;BME280;32370;41.864;-88.124;2023-04-30T09:02:01;97161.09;;;3.63;89.36
46642;BME280;32370;41.864;-88.124;2023-04-30T09:04:28;97153.27;;;3.78;88.38
46642;BME280;32370;41.864;-88.124;2023-04-30T09:06:57;97155.47;;;3.89;88.21
46642;BME280;32370;41.864;-88.124;2023-04-30T09:09:28;97156.73;;;3.38;88.88
46642;BME280;32370;41.864;-88.124;2023-04-30T09:12:12;97155.90;;;3.34;88.62
46642;BME280;32370;41.864;-88.124;2023-04-30T09:14:40;97153.13;;;3.14;89.37
46642;BME280;32370;41.864;-88.124;2023-04-30T09:17:08;97151.57;;;3.13;88.96
46642;BME280;32370;41.864;-88.124;2023-04-30T09:19:36;97155.13;;;2.99;89.60
46642;BME280;32370;41.864;-88.124;2023-04-30T09:22:22;97155.66;;;3.19;88.90
46642;BME280;32370;41.864;-88.124;2023-04-30T09:24:51;97152.53;;;3.14;89.36
46642;BME280;32370;41.864;-88.124;2023-04-30T09:27:21;97148.84;;;3.19;88.81
46642;BME280;32370;41.864;-88.124;2023-04-30T09:29:49;97143.58;;;3.64;89.20
46642;BME280;32370;41.864;-88.124;2023-04-30T09:32:17;97142.57;;;2.86;91.26
46642;BME280;32370;41.864;-88.124;2023-04-30T09:34:45;97146.02;;;3.27;91.09
46642;BME280;32370;41.864;-88.124;2023-04-30T09:37:13;97141.39;;;3.19;90.32
46642;BME280;32370;41.864;-88.124;2023-04-30T09:39:50;97140.05;;;3.23;89.85
46642;BME280;32370;41.864;-88.124;2023-04-30T09:42:18;97135.27;;;3.42;89.92
46642;BME280;32370;41.864;-88.124;2023-04-30T09:44:46;97131.67;;;3.80;89.14
46642;BME280;32370;41.864;-88.124;2023-04-30T09:47:16;97126.67;;;3.20;89.20
46642;BME280;32370;41.864;-88.124;2023-04-30T09:49:47;97130.02;;;3.01;89.34
46642;BME280;32370;41.864;-88.124;2023-04-30T09:52:16;97124.33;;;3.09;89.38
46642;BME280;32370;41.864;-88.124;2023-04-30T09:54:45;97122.47;;;3.20;88.76
46642;BME280;32370;41.864;-88.124;2023-04-30T09:57:15;97118.68;;;3.08;90.15
46642;BME280;32370;41.864;-88.124;2023-04-30T09:59:44;97113.41;;;2.44;89.66
46642;BME280;32370;41.864;-88.124;2023-04-30T10:02:14;97107.28;;;2.62;89.54
46642;BME280;32370;41.864;-88.124;2023-04-30T10:04:43;97103.00;;;2.57;89.56
46642;BME280;32370;41.864;-88.124;2023-04-30T10:07:14;97103.74;;;2.66;89.22
46642;BME280;32370;41.864;-88.124;2023-04-30T10:09:48;97102.38;;;2.73;89.56
46642;BME280;32370;41.864;-88.124;2023-04-30T10:12:19;97093.39;;;2.80;89.25
46642;BME280;32370;41.864;-88.124;2023-04-30T10:14:53;97091.82;;;2.54;89.85
46642;BME280;32370;41.864;-88.124;2023-04-30T10:17:26;97086.70;;;2.41;90.22
46642;BME280;32370;41.864;-88.124;2023-04-30T10:19:57;97081.70;;;2.41;90.69
46642;BME280;32370;41.864;-88.124;2023-04-30T10:22:29;97074.89;;;2.55;90.86
46642;BME280;32370;41.864;-88.124;2023-04-30T10:24:57;97067.88;;;2.28;91.02
46642;BME280;32370;41.864;-88.124;2023-04-30T10:27:28;97065.50;;;2.08;91.90
46642;BME280;32370;41.864;-88.124;2023-04-30T10:29:56;97062.34;;;1.96;92.24
46642;BME280;32370;41.864;-88.124;2023-04-30T10:32:32;97059.47;;;2.21;91.99
46642;BME280;32370;41.864;-88.124;2023-04-30T10:35:18;97061.89;;;1.67;93.55
46642;BME280;32370;41.864;-88.124;2023-04-30T10:37:53;97061.00;;;1.82;92.69
46642;BME280;32370;41.864;-88.124;2023-04-30T10:40:21;97066.31;;;2.03;92.51
46642;BME280;32370;41.864;-88.124;2023-04-30T10:42:52;97068.09;;;1.86;92.66
46642;BME280;32370;41.864;-88.124;2023-04-30T10:45:34;97067.66;;;1.76;93.50
46642;BME280;32370;41.864;-88.124;2023-04-30T10:48:02;97070.10;;;2.23;93.24
46642;BME280;32370;41.864;-88.124;2023-04-30T10:50:30;97068.71;;;2.11;93.84
46642;BME280;32370;41.864;-88.124;2023-04-30T10:53:02;97061.99;;;2.18;94.35
46642;BME280;32370;41.864;-88.124;2023-04-30T10:55:30;97062.52;;;2.16;95.45
46642;BME280;32370;41.864;-88.124;2023-04-30T10:57:59;97063.45;;;2.49;94.49
46642;BME280;32370;41.864;-88.124;2023-04-30T11:00:29;97060.13;;;2.15;95.91
46642;BME280;32370;41.864;-88.124;2023-04-30T11:02:59;97055.71;;;2.72;95.59
46642;BME280;32370;41.864;-88.124;2023-04-30T11:05:38;97054.60;;;2.53;96.91
46642;BME280;32370;41.864;-88.124;2023-04-30T11:08:10;97049.73;;;2.11;97.25
46642;BME280;32370;41.864;-88.124;2023-04-30T11:10:42;97047.22;;;2.88;96.26
46642;BME280;32370;41.864;-88.124;2023-04-30T11:13:23;97044.09;;;2.66;96.29
46642;BME280;32370;41.864;-88.124;2023-04-30T11:15:52;97047.67;;;2.68;96.06
46642;BME280;32370;41.864;-88.124;2023-04-30T11:18:20;97038.70;;;2.41;97.31
46642;BME280;32370;41.864;-88.124;2023-04-30T11:20:50;97045.78;;;2.60;97.12
46642;BME280;32370;41.864;-88.124;2023-04-30T11:23:23;97038.10;;;3.25;95.85
46642;BME280;32370;41.864;-88.124;2023-04-30T11:25:54;97035.47;;;3.48;94.46
46642;BME280;32370;41.864;-88.124;2023-04-30T11:28:26;97032.13;;;3.57;93.92
46642;BME280;32370;41.864;-88.124;2023-04-30T11:30:55;97029.76;;;3.47;93.95
46642;BME280;32370;41.864;-88.124;2023-04-30T11:33:25;97022.32;;;3.03;93.08
46642;BME280;32370;41.864;-88.124;2023-04-30T11:35:53;97021.47;;;2.88;93.92
46642;BME280;32370;41.864;-88.124;2023-04-30T11:38:26;97022.81;;;3.20;93.81
46642;BME280;32370;41.864;-88.124;2023-04-30T11:40:55;97021.89;;;3.13;93.75
46642;BME280;32370;41.864;-88.124;2023-04-30T11:43:24;97023.38;;;3.28;93.44
46642;BME280;32370;41.864;-88.124;2023-04-30T11:46:05;97024.04;;;3.37;92.87
46642;BME280;32370;41.864;-88.124;2023-04-30T11:48:35;97021.20;;;3.76;91.78
46642;BME280;32370;41.864;-88.124;2023-04-30T11:51:10;97019.71;;;3.93;90.98
46642;BME280;32370;41.864;-88.124;2023-04-30T11:53:41;97014.81;;;3.70;90.30
46642;BME280;32370;41.864;-88.124;2023-04-30T11:56:09;97015.62;;;3.83;89.27
46642;BME280;32370;41.864;-88.124;2023-04-30T11:58:37;97016.43;;;3.35;88.82
46642;BME280;32370;41.864;-88.124;2023-04-30T12:01:06;97013.94;;;3.68;88.67
46642;BME280;32370;41.864;-88.124;2023-04-30T12:03:41;97014.35;;;3.81;88.56
46642;BME280;32370;41.864;-88.124;2023-04-30T12:06:10;97012.22;;;3.61;88.64
46642;BME280;32370;41.864;-88.124;2023-04-30T12:08:40;97015.53;;;3.82;88.59
46642;BME280;32370;41.864;-88.124;2023-04-30T12:11:19;97018.94;;;4.03;88.34
46642;BME280;32370;41.864;-88.124;2023-04-30T12:13:50;97016.70;;;3.89;90.38
46642;BME280;32370;41.864;-88.124;2023-04-30T12:16:18;97016.39;;;4.51;87.95
46642;BME280;32370;41.864;-88.124;2023-04-30T12:18:46;97018.44;;;4.69;85.91
46642;BME280;32370;41.864;-88.124;2023-04-30T12:21:16;97018.07;;;4.53;85.57
46642;BME280;32370;41.864;-88.124;2023-04-30T12:23:45;97018.18;;;3.95;87.64
46642;BME280;32370;41.864;-88.124;2023-04-30T12:26:12;97014.73;;;4.40;84.04
46642;BME280;32370;41.864;-88.124;2023-04-30T12:28:41;97017.50;;;4.70;83.52
46642;BME280;32370;41.864;-88.124;2023-04-30T12:31:09;97016.17;;;4.97;81.70
46642;BME280;32370;41.864;-88.124;2023-04-30T12:33:37;97008.57;;;4.88;81.25
46642;BME280;32370;41.864;-88.124;2023-04-30T12:36:10;97001.52;;;5.37;80.60
46642;BME280;32370;41.864;-88.124;2023-04-30T12:38:45;96999.67;;;4.79;79.53
46642;BME280;32370;41.864;-88.124;2023-04-30T12:41:13;96997.07;;;4.71;81.50
46642;BME280;32370;41.864;-88.124;2023-04-30T12:43:41;97000.78;;;5.07;79.32
46642;BME280;32370;41.864;-88.124;2023-04-30T12:46:09;96995.71;;;4.96;77.81
46642;BME280;32370;41.864;-88.124;2023-04-30T12:48:43;97001.42;;;5.31;79.96
46642;BME280;32370;41.864;-88.124;2023-04-30T12:51:11;96991.26;;;5.65;76.34
46642;BME280;32370;41.864;-88.124;2023-04-30T12:53:44;96988.52;;;5.66;74.67
46642;BME280;32370;41.864;-88.124;2023-04-30T12:56:14;96993.86;;;5.57;77.93
46642;BME280;32370;41.864;-88.124;2023-04-30T12:58:42;96989.79;;;5.89;78.16
46642;BME280;32370;41.864;-88.124;2023-04-30T13:01:11;96987.45;;;5.91;74.99